sensor_id;sensor_type;location;lat;lon;timestamp;P1;durP1;ratioP1;P2;durP2;ratioP2
17369;SDS011;8802;52.402;4.920;2022-07-22T00:02:03;3.70;;;1.60;;
17369;SDS011;8802;52.402;4.920;2022-07-22T00:04:30;3.92;;;1.70;;
17369;SDS011;8802;52.402;4.920;2022-07-22T00:06:57;4.47;;;1.50;;
17369;SDS011;8802;52.402;4.920;2022-07-22T00:09:25;4.72;;;1.38;;
17369;SDS011;8802;52.402;4.920;2022-07-22T00:11:52;4.38;;;1.77;;
17369;SDS011;8802;52.402;4.920;2022-07-22T00:14:19;4.18;;;1.20;;
17369;SDS011;8802;52.402;4.920;2022-07-22T00:16:45;5.18;;;1.67;;
17369;SDS011;8802;52.402;4.920;2022-07-22T00:19:12;4.32;;;1.65;;
17369;SDS011;8802;52.402;4.920;2022-07-22T00:21:39;5.95;;;1.55;;
17369;SDS011;8802;52.402;4.920;2022-07-22T00:24:06;3.85;;;1.65;;
17369;SDS011;8802;52.402;4.920;2022-07-22T00:26:35;4.63;;;1.83;;
17369;SDS011;8802;52.402;4.920;2022-07-22T00:29:02;2.95;;;1.67;;
17369;SDS011;8802;52.402;4.920;2022-07-22T00:31:29;3.72;;;1.35;;
17369;SDS011;8802;52.402;4.920;2022-07-22T00:33:56;3.30;;;1.58;;
17369;SDS011;8802;52.402;4.920;2022-07-22T00:36:26;6.35;;;1.77;;
17369;SDS011;8802;52.402;4.920;2022-07-22T00:38:53;3.78;;;1.55;;
17369;SDS011;8802;52.402;4.920;2022-07-22T00:41:20;4.97;;;1.52;;
17369;SDS011;8802;52.402;4.920;2022-07-22T00:43:52;3.60;;;1.48;;
17369;SDS011;8802;52.402;4.920;2022-07-22T00:46:20;3.30;;;1.40;;
17369;SDS011;8802;52.402;4.920;2022-07-22T00:48:47;4.15;;;1.45;;
17369;SDS011;8802;52.402;4.920;2022-07-22T00:51:14;5.88;;;1.23;;
17369;SDS011;8802;52.402;4.920;2022-07-22T00:53:42;5.20;;;1.60;;
17369;SDS011;8802;52.402;4.920;2022-07-22T00:56:10;6.50;;;2.10;;
17369;SDS011;8802;52.402;4.920;2022-07-22T00:58:37;3.58;;;1.65;;
17369;SDS011;8802;52.402;4.920;2022-07-22T01:01:05;5.20;;;1.60;;
17369;SDS011;8802;52.402;4.920;2022-07-22T01:03:32;4.05;;;1.52;;
17369;SDS011;8802;52.402;4.920;2022-07-22T01:05:59;4.20;;;1.65;;
17369;SDS011;8802;52.402;4.920;2022-07-22T01:08:26;4.65;;;1.40;;
17369;SDS011;8802;52.402;4.920;2022-07-22T01:10:53;7.13;;;1.60;;
17369;SDS011;8802;52.402;4.920;2022-07-22T01:13:20;5.03;;;1.67;;
17369;SDS011;8802;52.402;4.920;2022-07-22T01:15:47;4.00;;;1.40;;
17369;SDS011;8802;52.402;4.920;2022-07-22T01:18:15;2.42;;;1.38;;
17369;SDS011;8802;52.402;4.920;2022-07-22T01:20:43;3.17;;;1.50;;
17369;SDS011;8802;52.402;4.920;2022-07-22T01:23:10;4.25;;;1.60;;
17369;SDS011;8802;52.402;4.920;2022-07-22T01:25:37;5.70;;;1.70;;
17369;SDS011;8802;52.402;4.920;2022-07-22T01:28:04;5.22;;;1.48;;
17369;SDS011;8802;52.402;4.920;2022-07-22T01:30:31;5.05;;;1.30;;
17369;SDS011;8802;52.402;4.920;2022-07-22T01:32:58;5.25;;;1.75;;
17369;SDS011;8802;52.402;4.920;2022-07-22T01:35:25;4.68;;;1.50;;
17369;SDS011;8802;52.402;4.920;2022-07-22T01:37:53;4.68;;;1.55;;
17369;SDS011;8802;52.402;4.920;2022-07-22T01:40:20;3.83;;;1.20;;
17369;SDS011;8802;52.402;4.920;2022-07-22T01:42:47;3.22;;;1.40;;
17369;SDS011;8802;52.402;4.920;2022-07-22T01:45:14;4.45;;;1.50;;
17369;SDS011;8802;52.402;4.920;2022-07-22T01:47:40;3.22;;;1.35;;
17369;SDS011;8802;52.402;4.920;2022-07-22T01:50:08;6.15;;;1.40;;
17369;SDS011;8802;52.402;4.920;2022-07-22T01:52:37;6.47;;;1.60;;
17369;SDS011;8802;52.402;4.920;2022-07-22T01:55:06;4.45;;;1.65;;
17369;SDS011;8802;52.402;4.920;2022-07-22T01:57:35;4.18;;;1.40;;
17369;SDS011;8802;52.402;4.920;2022-07-22T02:00:03;5.70;;;1.67;;
17369;SDS011;8802;52.402;4.920;2022-07-22T02:02:31;3.15;;;1.27;;
17369;SDS011;8802;52.402;4.920;2022-07-22T02:04:58;4.00;;;1.52;;
17369;SDS011;8802;52.402;4.920;2022-07-22T02:07:25;4.22;;;1.50;;
17369;SDS011;8802;52.402;4.920;2022-07-22T02:09:52;5.25;;;1.45;;
17369;SDS011;8802;52.402;4.920;2022-07-22T02:12:20;3.45;;;1.50;;
17369;SDS011;8802;52.402;4.920;2022-07-22T02:14:48;6.55;;;1.67;;
17369;SDS011;8802;52.402;4.920;2022-07-22T02:17:15;4.47;;;1.40;;
17369;SDS011;8802;52.402;4.920;2022-07-22T02:19:42;6.07;;;1.52;;
17369;SDS011;8802;52.402;4.920;2022-07-22T02:22:09;6.10;;;1.38;;
17369;SDS011;8802;52.402;4.920;2022-07-22T02:24:36;3.92;;;1.30;;
17369;SDS011;8802;52.402;4.920;2022-07-22T02:27:03;4.35;;;1.42;;
17369;SDS011;8802;52.402;4.920;2022-07-22T02:29:31;4.03;;;1.17;;
17369;SDS011;8802;52.402;4.920;2022-07-22T02:31:58;4.60;;;1.40;;
17369;SDS011;8802;52.402;4.920;2022-07-22T02:34:25;3.55;;;1.27;;
17369;SDS011;8802;52.402;4.920;2022-07-22T02:36:52;5.45;;;1.17;;
17369;SDS011;8802;52.402;4.920;2022-07-22T02:39:19;3.85;;;1.50;;
17369;SDS011;8802;52.402;4.920;2022-07-22T02:41:46;3.08;;;1.30;;
17369;SDS011;8802;52.402;4.920;2022-07-22T02:44:13;4.35;;;1.45;;
17369;SDS011;8802;52.402;4.920;2022-07-22T02:46:42;4.75;;;1.17;;
17369;SDS011;8802;52.402;4.920;2022-07-22T02:49:08;2.50;;;1.02;;
17369;SDS011;8802;52.402;4.920;2022-07-22T02:51:35;2.78;;;1.20;;
17369;SDS011;8802;52.402;4.920;2022-07-22T02:54:02;3.22;;;1.13;;
17369;SDS011;8802;52.402;4.920;2022-07-22T02:56:30;4.63;;;1.10;;
17369;SDS011;8802;52.402;4.920;2022-07-22T02:58:57;3.50;;;1.17;;
17369;SDS011;8802;52.402;4.920;2022-07-22T03:01:24;4.90;;;1.10;;
17369;SDS011;8802;52.402;4.920;2022-07-22T03:03:52;4.30;;;1.05;;
17369;SDS011;8802;52.402;4.920;2022-07-22T03:06:19;4.25;;;1.55;;
17369;SDS011;8802;52.402;4.920;2022-07-22T03:08:47;1.73;;;0.82;;
17369;SDS011;8802;52.402;4.920;2022-07-22T03:11:14;3.75;;;1.23;;
17369;SDS011;8802;52.402;4.920;2022-07-22T03:13:41;2.92;;;1.35;;
17369;SDS011;8802;52.402;4.920;2022-07-22T03:16:08;4.95;;;1.13;;
17369;SDS011;8802;52.402;4.920;2022-07-22T03:18:34;3.03;;;1.15;;
17369;SDS011;8802;52.402;4.920;2022-07-22T03:21:03;2.85;;;1.10;;
17369;SDS011;8802;52.402;4.920;2022-07-22T03:23:30;4.78;;;1.15;;
17369;SDS011;8802;52.402;4.920;2022-07-22T03:25:57;3.22;;;0.90;;
17369;SDS011;8802;52.402;4.920;2022-07-22T03:28:24;3.17;;;1.08;;
17369;SDS011;8802;52.402;4.920;2022-07-22T03:30:52;3.03;;;1.20;;
17369;SDS011;8802;52.402;4.920;2022-07-22T03:33:19;2.45;;;0.93;;
17369;SDS011;8802;52.402;4.920;2022-07-22T03:35:46;4.25;;;1.30;;
17369;SDS011;8802;52.402;4.920;2022-07-22T03:38:14;4.20;;;1.30;;
17369;SDS011;8802;52.402;4.920;2022-07-22T03:40:41;4.00;;;0.98;;
17369;SDS011;8802;52.402;4.920;2022-07-22T03:43:08;2.65;;;0.90;;
17369;SDS011;8802;52.402;4.920;2022-07-22T03:45:34;3.80;;;1.05;;
17369;SDS011;8802;52.402;4.920;2022-07-22T03:48:01;2.67;;;0.82;;
17369;SDS011;8802;52.402;4.920;2022-07-22T03:50:29;2.13;;;0.90;;
17369;SDS011;8802;52.402;4.920;2022-07-22T03:52:55;3.63;;;1.33;;
17369;SDS011;8802;52.402;4.920;2022-07-22T03:55:24;1.48;;;0.90;;
17369;SDS011;8802;52.402;4.920;2022-07-22T03:57:51;3.58;;;0.95;;
17369;SDS011;8802;52.402;4.920;2022-07-22T04:00:17;2.65;;;1.10;;
17369;SDS011;8802;52.402;4.920;2022-07-22T04:02:44;4.32;;;0.77;;
17369;SDS011;8802;52.402;4.920;2022-07-22T04:05:11;4.00;;;1.00;;
17369;SDS011;8802;52.402;4.920;2022-07-22T04:07:38;1.80;;;0.63;;
17369;SDS011;8802;52.402;4.920;2022-07-22T04:10:05;2.63;;;1.00;;
17369;SDS011;8802;52.402;4.920;2022-07-22T04:12:34;3.92;;;1.05;;
17369;SDS011;8802;52.402;4.920;2022-07-22T04:15:03;3.70;;;1.33;;
17369;SDS011;8802;52.402;4.920;2022-07-22T04:17:31;2.97;;;1.02;;
17369;SDS011;8802;52.402;4.920;2022-07-22T04:19:58;3.88;;;1.15;;
17369;SDS011;8802;52.402;4.920;2022-07-22T04:22:25;2.88;;;1.25;;
17369;SDS011;8802;52.402;4.920;2022-07-22T04:24:52;5.22;;;1.27;;
17369;SDS011;8802;52.402;4.920;2022-07-22T04:27:19;1.80;;;0.95;;
17369;SDS011;8802;52.402;4.920;2022-07-22T04:29:47;2.55;;;1.20;;
17369;SDS011;8802;52.402;4.920;2022-07-22T04:32:14;7.57;;;1.23;;
17369;SDS011;8802;52.402;4.920;2022-07-22T04:34:41;4.18;;;0.95;;
17369;SDS011;8802;52.402;4.920;2022-07-22T04:37:08;3.17;;;1.23;;
17369;SDS011;8802;52.402;4.920;2022-07-22T04:39:35;3.75;;;1.27;;
17369;SDS011;8802;52.402;4.920;2022-07-22T04:42:02;2.35;;;1.10;;
17369;SDS011;8802;52.402;4.920;2022-07-22T04:44:29;3.95;;;0.98;;
17369;SDS011;8802;52.402;4.920;2022-07-22T04:46:57;2.58;;;0.95;;
17369;SDS011;8802;52.402;4.920;2022-07-22T04:49:24;5.22;;;1.30;;
17369;SDS011;8802;52.402;4.920;2022-07-22T04:51:52;2.63;;;1.13;;
17369;SDS011;8802;52.402;4.920;2022-07-22T04:54:18;4.90;;;1.00;;
17369;SDS011;8802;52.402;4.920;2022-07-22T04:56:45;4.40;;;1.25;;
17369;SDS011;8802;52.402;4.920;2022-07-22T04:59:12;1.90;;;0.75;;
17369;SDS011;8802;52.402;4.920;2022-07-22T05:01:39;2.80;;;1.00;;
17369;SDS011;8802;52.402;4.920;2022-07-22T05:04:07;2.90;;;1.70;;
17369;SDS011;8802;52.402;4.920;2022-07-22T05:06:34;2.20;;;0.95;;
17369;SDS011;8802;52.402;4.920;2022-07-22T05:09:01;4.70;;;1.00;;
17369;SDS011;8802;52.402;4.920;2022-07-22T05:11:28;2.92;;;1.10;;
17369;SDS011;8802;52.402;4.920;2022-07-22T05:13:55;2.80;;;0.93;;
17369;SDS011;8802;52.402;4.920;2022-07-22T05:16:22;2.67;;;1.10;;
17369;SDS011;8802;52.402;4.920;2022-07-22T05:18:49;3.60;;;0.90;;
17369;SDS011;8802;52.402;4.920;2022-07-22T05:21:17;3.58;;;0.90;;
17369;SDS011;8802;52.402;4.920;2022-07-22T05:23:44;4.20;;;0.95;;
17369;SDS011;8802;52.402;4.920;2022-07-22T05:26:11;4.72;;;1.23;;
17369;SDS011;8802;52.402;4.920;2022-07-22T05:28:38;3.70;;;1.33;;
17369;SDS011;8802;52.402;4.920;2022-07-22T05:31:05;4.15;;;1.08;;
17369;SDS011;8802;52.402;4.920;2022-07-22T05:33:32;3.00;;;1.15;;
17369;SDS011;8802;52.402;4.920;2022-07-22T05:35:59;4.15;;;1.20;;
17369;SDS011;8802;52.402;4.920;2022-07-22T05:38:27;2.35;;;1.15;;
17369;SDS011;8802;52.402;4.920;2022-07-22T05:40:54;4.75;;;1.23;;
17369;SDS011;8802;52.402;4.920;2022-07-22T05:43:21;4.07;;;0.98;;
17369;SDS011;8802;52.402;4.920;2022-07-22T05:45:48;2.45;;;1.08;;
17369;SDS011;8802;52.402;4.920;2022-07-22T05:48:14;4.30;;;1.10;;
17369;SDS011;8802;52.402;4.920;2022-07-22T05:50:41;1.50;;;0.90;;
17369;SDS011;8802;52.402;4.920;2022-07-22T05:53:08;4.18;;;0.98;;
17369;SDS011;8802;52.402;4.920;2022-07-22T05:55:36;2.20;;;0.85;;
17369;SDS011;8802;52.402;4.920;2022-07-22T05:58:03;5.07;;;1.33;;
17369;SDS011;8802;52.402;4.920;2022-07-22T06:00:30;1.90;;;1.13;;
17369;SDS011;8802;52.402;4.920;2022-07-22T06:02:57;2.75;;;1.10;;
17369;SDS011;8802;52.402;4.920;2022-07-22T06:05:24;6.05;;;2.05;;
17369;SDS011;8802;52.402;4.920;2022-07-22T06:07:51;3.55;;;1.17;;
17369;SDS011;8802;52.402;4.920;2022-07-22T06:10:18;5.55;;;1.33;;
17369;SDS011;8802;52.402;4.920;2022-07-22T06:12:46;2.13;;;0.80;;
17369;SDS011;8802;52.402;4.920;2022-07-22T06:15:13;3.53;;;1.38;;
17369;SDS011;8802;52.402;4.920;2022-07-22T06:17:40;2.75;;;1.05;;
17369;SDS011;8802;52.402;4.920;2022-07-22T06:20:07;3.53;;;1.23;;
17369;SDS011;8802;52.402;4.920;2022-07-22T06:22:35;2.72;;;0.80;;
17369;SDS011;8802;52.402;4.920;2022-07-22T06:25:02;1.65;;;0.77;;
17369;SDS011;8802;52.402;4.920;2022-07-22T06:27:29;4.55;;;1.27;;
17369;SDS011;8802;52.402;4.920;2022-07-22T06:29:57;3.28;;;1.08;;
17369;SDS011;8802;52.402;4.920;2022-07-22T06:32:24;3.50;;;1.20;;
17369;SDS011;8802;52.402;4.920;2022-07-22T06:34:51;2.55;;;1.20;;
17369;SDS011;8802;52.402;4.920;2022-07-22T06:37:17;2.85;;;0.73;;
17369;SDS011;8802;52.402;4.920;2022-07-22T06:39:44;4.70;;;1.00;;
17369;SDS011;8802;52.402;4.920;2022-07-22T06:42:11;3.30;;;1.45;;
17369;SDS011;8802;52.402;4.920;2022-07-22T06:44:38;1.92;;;0.88;;
17369;SDS011;8802;52.402;4.920;2022-07-22T06:47:07;4.22;;;1.33;;
17369;SDS011;8802;52.402;4.920;2022-07-22T06:49:34;3.95;;;1.00;;
17369;SDS011;8802;52.402;4.920;2022-07-22T06:52:01;5.13;;;1.00;;
17369;SDS011;8802;52.402;4.920;2022-07-22T06:54:28;2.00;;;1.23;;
17369;SDS011;8802;52.402;4.920;2022-07-22T06:56:55;4.55;;;1.00;;
17369;SDS011;8802;52.402;4.920;2022-07-22T06:59:22;3.30;;;0.88;;
17369;SDS011;8802;52.402;4.920;2022-07-22T07:01:49;4.20;;;1.10;;
17369;SDS011;8802;52.402;4.920;2022-07-22T07:04:18;4.53;;;1.00;;
17369;SDS011;8802;52.402;4.920;2022-07-22T07:06:44;2.17;;;0.88;;
17369;SDS011;8802;52.402;4.920;2022-07-22T07:09:11;4.35;;;0.98;;
17369;SDS011;8802;52.402;4.920;2022-07-22T07:11:38;4.88;;;0.95;;
17369;SDS011;8802;52.402;4.920;2022-07-22T07:14:05;1.85;;;0.85;;
17369;SDS011;8802;52.402;4.920;2022-07-22T07:16:32;4.57;;;1.45;;
17369;SDS011;8802;52.402;4.920;2022-07-22T07:18:59;2.22;;;0.80;;
17369;SDS011;8802;52.402;4.920;2022-07-22T07:21:27;4.00;;;1.00;;
17369;SDS011;8802;52.402;4.920;2022-07-22T07:23:54;3.95;;;0.93;;
17369;SDS011;8802;52.402;4.920;2022-07-22T07:26:21;2.03;;;0.98;;
17369;SDS011;8802;52.402;4.920;2022-07-22T07:28:48;3.90;;;1.00;;
17369;SDS011;8802;52.402;4.920;2022-07-22T07:31:15;2.50;;;0.90;;
17369;SDS011;8802;52.402;4.920;2022-07-22T07:33:42;3.75;;;0.90;;
17369;SDS011;8802;52.402;4.920;2022-07-22T07:36:08;3.28;;;1.23;;
17369;SDS011;8802;52.402;4.920;2022-07-22T07:38:37;1.63;;;0.82;;
17369;SDS011;8802;52.402;4.920;2022-07-22T07:41:04;3.78;;;0.80;;
17369;SDS011;8802;52.402;4.920;2022-07-22T07:43:31;1.13;;;0.60;;
17369;SDS011;8802;52.402;4.920;2022-07-22T07:45:58;4.20;;;1.08;;
17369;SDS011;8802;52.402;4.920;2022-07-22T07:48:24;3.45;;;0.90;;
17369;SDS011;8802;52.402;4.920;2022-07-22T07:50:51;3.22;;;0.90;;
17369;SDS011;8802;52.402;4.920;2022-07-22T07:53:18;2.80;;;0.80;;
17369;SDS011;8802;52.402;4.920;2022-07-22T07:55:47;3.92;;;0.90;;
17369;SDS011;8802;52.402;4.920;2022-07-22T07:58:14;2.80;;;1.20;;
17369;SDS011;8802;52.402;4.920;2022-07-22T08:00:41;2.10;;;0.90;;
17369;SDS011;8802;52.402;4.920;2022-07-22T08:03:08;1.42;;;0.63;;
17369;SDS011;8802;52.402;4.920;2022-07-22T08:05:35;2.53;;;0.90;;
17369;SDS011;8802;52.402;4.920;2022-07-22T08:08:04;2.15;;;0.80;;
17369;SDS011;8802;52.402;4.920;2022-07-22T08:10:32;1.77;;;0.80;;
17369;SDS011;8802;52.402;4.920;2022-07-22T08:13:00;5.28;;;0.70;;
17369;SDS011;8802;52.402;4.920;2022-07-22T08:15:28;2.55;;;1.20;;
17369;SDS011;8802;52.402;4.920;2022-07-22T08:17:55;2.42;;;0.88;;
17369;SDS011;8802;52.402;4.920;2022-07-22T08:20:23;1.15;;;0.63;;
17369;SDS011;8802;52.402;4.920;2022-07-22T08:22:51;2.00;;;0.60;;
17369;SDS011;8802;52.402;4.920;2022-07-22T08:25:18;3.90;;;0.98;;
17369;SDS011;8802;52.402;4.920;2022-07-22T08:27:45;1.83;;;0.88;;
17369;SDS011;8802;52.402;4.920;2022-07-22T08:30:14;2.67;;;0.82;;
17369;SDS011;8802;52.402;4.920;2022-07-22T08:32:42;1.52;;;0.80;;
17369;SDS011;8802;52.402;4.920;2022-07-22T08:35:09;2.08;;;0.77;;
17369;SDS011;8802;52.402;4.920;2022-07-22T08:37:36;2.28;;;0.63;;
17369;SDS011;8802;52.402;4.920;2022-07-22T08:40:04;1.15;;;0.70;;
17369;SDS011;8802;52.402;4.920;2022-07-22T08:42:32;1.50;;;0.55;;
17369;SDS011;8802;52.402;4.920;2022-07-22T08:45:03;1.10;;;0.80;;
17369;SDS011;8802;52.402;4.920;2022-07-22T08:47:32;2.33;;;0.75;;
17369;SDS011;8802;52.402;4.920;2022-07-22T08:49:59;2.08;;;0.77;;
17369;SDS011;8802;52.402;4.920;2022-07-22T08:52:27;2.08;;;0.70;;
17369;SDS011;8802;52.402;4.920;2022-07-22T08:54:53;1.45;;;0.70;;
17369;SDS011;8802;52.402;4.920;2022-07-22T08:57:21;3.00;;;0.77;;
17369;SDS011;8802;52.402;4.920;2022-07-22T08:59:48;1.95;;;0.80;;
17369;SDS011;8802;52.402;4.920;2022-07-22T09:02:17;1.50;;;0.60;;
17369;SDS011;8802;52.402;4.920;2022-07-22T09:04:55;1.63;;;0.60;;
17369;SDS011;8802;52.402;4.920;2022-07-22T09:07:25;1.48;;;0.65;;
17369;SDS011;8802;52.402;4.920;2022-07-22T09:09:53;3.17;;;0.70;;
17369;SDS011;8802;52.402;4.920;2022-07-22T09:12:20;1.15;;;0.60;;
17369;SDS011;8802;52.402;4.920;2022-07-22T09:14:48;2.78;;;0.70;;
17369;SDS011;8802;52.402;4.920;2022-07-22T09:17:23;1.13;;;0.47;;
17369;SDS011;8802;52.402;4.920;2022-07-22T09:19:51;2.92;;;0.70;;
17369;SDS011;8802;52.402;4.920;2022-07-22T09:22:35;3.38;;;0.80;;
17369;SDS011;8802;52.402;4.920;2022-07-22T09:25:16;2.33;;;0.82;;
17369;SDS011;8802;52.402;4.920;2022-07-22T09:27:51;2.10;;;0.60;;
17369;SDS011;8802;52.402;4.920;2022-07-22T09:30:21;1.08;;;0.70;;
17369;SDS011;8802;52.402;4.920;2022-07-22T09:32:50;1.52;;;0.60;;
17369;SDS011;8802;52.402;4.920;2022-07-22T09:35:18;1.05;;;0.57;;
17369;SDS011;8802;52.402;4.920;2022-07-22T09:37:51;1.55;;;0.57;;
17369;SDS011;8802;52.402;4.920;2022-07-22T09:40:20;0.95;;;0.63;;
17369;SDS011;8802;52.402;4.920;2022-07-22T09:42:49;1.67;;;0.63;;
17369;SDS011;8802;52.402;4.920;2022-07-22T09:45:17;2.15;;;0.88;;
17369;SDS011;8802;52.402;4.920;2022-07-22T09:47:46;2.42;;;0.80;;
17369;SDS011;8802;52.402;4.920;2022-07-22T09:50:15;2.50;;;0.90;;
17369;SDS011;8802;52.402;4.920;2022-07-22T09:52:43;2.28;;;0.80;;
17369;SDS011;8802;52.402;4.920;2022-07-22T09:55:12;1.15;;;0.60;;
17369;SDS011;8802;52.402;4.920;2022-07-22T09:57:40;4.80;;;0.85;;
17369;SDS011;8802;52.402;4.920;2022-07-22T10:00:07;1.50;;;0.57;;
17369;SDS011;8802;52.402;4.920;2022-07-22T10:02:36;1.90;;;0.68;;
17369;SDS011;8802;52.402;4.920;2022-07-22T10:05:08;1.27;;;0.60;;
17369;SDS011;8802;52.402;4.920;2022-07-22T10:07:39;4.05;;;0.80;;
17369;SDS011;8802;52.402;4.920;2022-07-22T10:10:08;3.22;;;0.98;;
17369;SDS011;8802;52.402;4.920;2022-07-22T10:12:37;1.25;;;0.60;;
17369;SDS011;8802;52.402;4.920;2022-07-22T10:15:04;2.58;;;0.70;;
17369;SDS011;8802;52.402;4.920;2022-07-22T10:17:32;3.00;;;0.90;;
17369;SDS011;8802;52.402;4.920;2022-07-22T10:20:01;1.55;;;0.70;;
17369;SDS011;8802;52.402;4.920;2022-07-22T10:25:16;0.93;;;0.57;;
17369;SDS011;8802;52.402;4.920;2022-07-22T10:27:46;1.10;;;0.60;;
17369;SDS011;8802;52.402;4.920;2022-07-22T10:30:16;1.23;;;0.77;;
17369;SDS011;8802;52.402;4.920;2022-07-22T10:32:43;2.40;;;0.80;;
17369;SDS011;8802;52.402;4.920;2022-07-22T10:35:21;1.85;;;0.70;;
17369;SDS011;8802;52.402;4.920;2022-07-22T10:37:57;1.60;;;0.70;;
17369;SDS011;8802;52.402;4.920;2022-07-22T10:40:30;3.08;;;0.80;;
17369;SDS011;8802;52.402;4.920;2022-07-22T10:43:06;3.95;;;1.00;;
17369;SDS011;8802;52.402;4.920;2022-07-22T10:45:36;2.85;;;1.55;;
17369;SDS011;8802;52.402;4.920;2022-07-22T10:48:06;1.23;;;0.80;;
17369;SDS011;8802;52.402;4.920;2022-07-22T10:50:38;1.52;;;0.63;;
17369;SDS011;8802;52.402;4.920;2022-07-22T10:53:06;1.85;;;0.85;;
17369;SDS011;8802;52.402;4.920;2022-07-22T10:55:35;1.85;;;0.60;;
17369;SDS011;8802;52.402;4.920;2022-07-22T11:01:02;1.35;;;0.70;;
17369;SDS011;8802;52.402;4.920;2022-07-22T11:03:32;2.03;;;0.80;;
17369;SDS011;8802;52.402;4.920;2022-07-22T11:06:12;1.05;;;0.47;;
17369;SDS011;8802;52.402;4.920;2022-07-22T11:08:41;2.42;;;0.73;;
17369;SDS011;8802;52.402;4.920;2022-07-22T11:11:09;1.75;;;0.60;;
17369;SDS011;8802;52.402;4.920;2022-07-22T11:13:37;1.38;;;0.55;;
17369;SDS011;8802;52.402;4.920;2022-07-22T11:16:17;3.55;;;0.50;;
17369;SDS011;8802;52.402;4.920;2022-07-22T11:18:49;2.55;;;0.50;;
17369;SDS011;8802;52.402;4.920;2022-07-22T11:21:19;2.47;;;0.73;;
17369;SDS011;8802;52.402;4.920;2022-07-22T11:23:47;1.05;;;0.60;;
17369;SDS011;8802;52.402;4.920;2022-07-22T11:26:16;0.90;;;0.50;;
17369;SDS011;8802;52.402;4.920;2022-07-22T11:28:44;2.08;;;0.95;;
17369;SDS011;8802;52.402;4.920;2022-07-22T11:31:14;1.48;;;0.82;;
17369;SDS011;8802;52.402;4.920;2022-07-22T11:33:44;1.80;;;0.60;;
17369;SDS011;8802;52.402;4.920;2022-07-22T11:36:11;2.75;;;0.73;;
17369;SDS011;8802;52.402;4.920;2022-07-22T11:38:41;2.05;;;0.63;;
17369;SDS011;8802;52.402;4.920;2022-07-22T11:41:10;3.55;;;0.73;;
17369;SDS011;8802;52.402;4.920;2022-07-22T11:43:38;0.75;;;0.65;;
17369;SDS011;8802;52.402;4.920;2022-07-22T11:46:06;1.38;;;0.90;;
17369;SDS011;8802;52.402;4.920;2022-07-22T11:48:33;2.08;;;0.70;;
17369;SDS011;8802;52.402;4.920;2022-07-22T11:51:01;3.83;;;0.90;;
17369;SDS011;8802;52.402;4.920;2022-07-22T11:53:28;3.40;;;0.75;;
17369;SDS011;8802;52.402;4.920;2022-07-22T11:55:58;1.10;;;0.57;;
17369;SDS011;8802;52.402;4.920;2022-07-22T11:58:36;1.20;;;0.60;;
17369;SDS011;8802;52.402;4.920;2022-07-22T12:01:08;3.05;;;0.93;;
17369;SDS011;8802;52.402;4.920;2022-07-22T12:03:37;2.83;;;0.90;;
17369;SDS011;8802;52.402;4.920;2022-07-22T12:06:07;1.08;;;0.73;;
17369;SDS011;8802;52.402;4.920;2022-07-22T12:08:39;0.85;;;0.70;;
17369;SDS011;8802;52.402;4.920;2022-07-22T12:11:08;1.45;;;0.68;;
17369;SDS011;8802;52.402;4.920;2022-07-22T12:13:37;0.88;;;0.60;;
17369;SDS011;8802;52.402;4.920;2022-07-22T12:16:18;2.83;;;0.80;;
17369;SDS011;8802;52.402;4.920;2022-07-22T12:18:50;1.05;;;0.80;;
17369;SDS011;8802;52.402;4.920;2022-07-22T12:21:24;2.95;;;0.80;;
17369;SDS011;8802;52.402;4.920;2022-07-22T12:23:53;2.00;;;0.90;;
17369;SDS011;8802;52.402;4.920;2022-07-22T12:26:39;1.63;;;0.80;;
17369;SDS011;8802;52.402;4.920;2022-07-22T12:29:12;2.05;;;0.70;;
17369;SDS011;8802;52.402;4.920;2022-07-22T12:31:47;3.45;;;0.88;;
17369;SDS011;8802;52.402;4.920;2022-07-22T12:34:15;2.50;;;0.93;;
17369;SDS011;8802;52.402;4.920;2022-07-22T12:36:44;2.88;;;1.00;;
17369;SDS011;8802;52.402;4.920;2022-07-22T12:39:15;3.67;;;0.70;;
17369;SDS011;8802;52.402;4.920;2022-07-22T12:41:49;1.90;;;0.82;;
17369;SDS011;8802;52.402;4.920;2022-07-22T12:44:19;1.02;;;0.60;;
17369;SDS011;8802;52.402;4.920;2022-07-22T12:46:47;2.00;;;0.70;;
17369;SDS011;8802;52.402;4.920;2022-07-22T12:49:16;3.75;;;0.88;;
17369;SDS011;8802;52.402;4.920;2022-07-22T12:54:38;2.05;;;1.00;;
17369;SDS011;8802;52.402;4.920;2022-07-22T12:57:07;3.45;;;0.70;;
17369;SDS011;8802;52.402;4.920;2022-07-22T12:59:35;1.40;;;0.65;;
17369;SDS011;8802;52.402;4.920;2022-07-22T13:02:02;1.25;;;0.80;;
17369;SDS011;8802;52.402;4.920;2022-07-22T13:04:30;1.15;;;0.80;;
17369;SDS011;8802;52.402;4.920;2022-07-22T13:06:57;0.82;;;0.75;;
17369;SDS011;8802;52.402;4.920;2022-07-22T13:09:25;3.35;;;1.10;;
17369;SDS011;8802;52.402;4.920;2022-07-22T13:11:52;2.30;;;1.60;;
17369;SDS011;8802;52.402;4.920;2022-07-22T13:14:19;2.20;;;1.38;;
17369;SDS011;8802;52.402;4.920;2022-07-22T13:16:46;2.05;;;0.90;;
17369;SDS011;8802;52.402;4.920;2022-07-22T13:19:13;1.50;;;0.90;;
17369;SDS011;8802;52.402;4.920;2022-07-22T13:21:40;3.10;;;0.90;;
17369;SDS011;8802;52.402;4.920;2022-07-22T13:24:07;1.90;;;1.33;;
17369;SDS011;8802;52.402;4.920;2022-07-22T13:26:36;2.15;;;1.08;;
17369;SDS011;8802;52.402;4.920;2022-07-22T13:29:03;1.33;;;0.90;;
17369;SDS011;8802;52.402;4.920;2022-07-22T13:31:29;1.88;;;1.05;;
17369;SDS011;8802;52.402;4.920;2022-07-22T13:33:57;1.77;;;1.13;;
17369;SDS011;8802;52.402;4.920;2022-07-22T13:36:23;1.33;;;0.85;;
17369;SDS011;8802;52.402;4.920;2022-07-22T13:38:53;1.45;;;0.73;;
17369;SDS011;8802;52.402;4.920;2022-07-22T13:41:20;1.70;;;1.00;;
17369;SDS011;8802;52.402;4.920;2022-07-22T13:43:48;2.50;;;1.15;;
17369;SDS011;8802;52.402;4.920;2022-07-22T13:46:16;2.17;;;1.30;;
17369;SDS011;8802;52.402;4.920;2022-07-22T13:48:43;2.35;;;0.90;;
17369;SDS011;8802;52.402;4.920;2022-07-22T13:51:10;2.53;;;1.00;;
17369;SDS011;8802;52.402;4.920;2022-07-22T13:53:37;2.47;;;1.00;;
17369;SDS011;8802;52.402;4.920;2022-07-22T13:56:05;4.10;;;1.20;;
17369;SDS011;8802;52.402;4.920;2022-07-22T13:58:34;4.53;;;1.48;;
17369;SDS011;8802;52.402;4.920;2022-07-22T14:01:02;2.97;;;1.45;;
17369;SDS011;8802;52.402;4.920;2022-07-22T14:03:29;5.15;;;1.40;;
17369;SDS011;8802;52.402;4.920;2022-07-22T14:05:56;3.65;;;1.10;;
17369;SDS011;8802;52.402;4.920;2022-07-22T14:08:23;1.52;;;0.82;;
17369;SDS011;8802;52.402;4.920;2022-07-22T14:10:50;2.38;;;1.20;;
17369;SDS011;8802;52.402;4.920;2022-07-22T14:13:17;2.10;;;1.05;;
17369;SDS011;8802;52.402;4.920;2022-07-22T14:15:44;2.58;;;1.02;;
17369;SDS011;8802;52.402;4.920;2022-07-22T14:18:12;1.67;;;0.90;;
17369;SDS011;8802;52.402;4.920;2022-07-22T14:20:39;4.20;;;1.27;;
17369;SDS011;8802;52.402;4.920;2022-07-22T14:23:06;2.00;;;1.15;;
17369;SDS011;8802;52.402;4.920;2022-07-22T14:25:34;3.72;;;1.08;;
17369;SDS011;8802;52.402;4.920;2022-07-22T14:28:02;2.83;;;0.80;;
17369;SDS011;8802;52.402;4.920;2022-07-22T14:30:29;2.55;;;0.90;;
17369;SDS011;8802;52.402;4.920;2022-07-22T14:32:56;2.15;;;1.10;;
17369;SDS011;8802;52.402;4.920;2022-07-22T14:35:24;2.00;;;0.80;;
17369;SDS011;8802;52.402;4.920;2022-07-22T14:37:51;2.33;;;0.90;;
17369;SDS011;8802;52.402;4.920;2022-07-22T14:40:18;2.95;;;1.10;;
17369;SDS011;8802;52.402;4.920;2022-07-22T14:42:46;2.20;;;0.85;;
17369;SDS011;8802;52.402;4.920;2022-07-22T14:45:13;3.90;;;1.60;;
17369;SDS011;8802;52.402;4.920;2022-07-22T14:47:40;2.95;;;1.13;;
17369;SDS011;8802;52.402;4.920;2022-07-22T14:50:07;2.83;;;1.38;;
17369;SDS011;8802;52.402;4.920;2022-07-22T14:52:36;1.52;;;0.98;;
17369;SDS011;8802;52.402;4.920;2022-07-22T14:55:03;3.70;;;1.10;;
17369;SDS011;8802;52.402;4.920;2022-07-22T14:57:30;2.10;;;0.93;;
17369;SDS011;8802;52.402;4.920;2022-07-22T14:59:57;1.98;;;1.33;;
17369;SDS011;8802;52.402;4.920;2022-07-22T15:02:24;1.88;;;1.20;;
17369;SDS011;8802;52.402;4.920;2022-07-22T15:04:51;1.58;;;0.93;;
17369;SDS011;8802;52.402;4.920;2022-07-22T15:07:18;2.80;;;1.23;;
17369;SDS011;8802;52.402;4.920;2022-07-22T15:09:46;2.30;;;1.27;;
17369;SDS011;8802;52.402;4.920;2022-07-22T15:12:13;2.83;;;1.27;;
17369;SDS011;8802;52.402;4.920;2022-07-22T15:14:40;2.78;;;1.20;;